sensor_id;sensor_type;location;lat;lon;timestamp;P1;durP1;ratioP1;P2;durP2;ratioP2
13108;SDS011;6620;53.734;11.510;2023-02-28T00:01:35;6.25;;;3.63;;
13108;SDS011;6620;53.734;11.510;2023-02-28T00:04:01;7.93;;;4.43;;
13108;SDS011;6620;53.734;11.510;2023-02-28T00:06:26;6.88;;;3.90;;
13108;SDS011;6620;53.734;11.510;2023-02-28T00:08:51;6.93;;;3.28;;
13108;SDS011;6620;53.734;11.510;2023-02-28T00:11:16;8.93;;;3.83;;
13108;SDS011;6620;53.734;11.510;2023-02-28T00:13:42;4.20;;;3.10;;
13108;SDS011;6620;53.734;11.510;2023-02-28T00:16:09;5.63;;;2.72;;
13108;SDS011;6620;53.734;11.510;2023-02-28T00:18:36;5.90;;;3.42;;
13108;SDS011;6620;53.734;11.510;2023-02-28T00:21:01;4.43;;;2.67;;
13108;SDS011;6620;53.734;11.510;2023-02-28T00:23:27;4.82;;;2.67;;
13108;SDS011;6620;53.734;11.510;2023-02-28T00:25:53;5.15;;;2.75;;
13108;SDS011;6620;53.734;11.510;2023-02-28T00:28:18;4.30;;;2.25;;
13108;SDS011;6620;53.734;11.510;2023-02-28T00:30:44;3.25;;;2.20;;
13108;SDS011;6620;53.734;11.510;2023-02-28T00:33:09;6.20;;;1.98;;
13108;SDS011;6620;53.734;11.510;2023-02-28T00:35:34;4.65;;;1.80;;
13108;SDS011;6620;53.734;11.510;2023-02-28T00:38:00;4.80;;;2.05;;
13108;SDS011;6620;53.734;11.510;2023-02-28T00:40:25;4.13;;;2.10;;
13108;SDS011;6620;53.734;11.510;2023-02-28T00:42:50;5.40;;;2.07;;
13108;SDS011;6620;53.734;11.510;2023-02-28T00:45:15;3.57;;;1.77;;
13108;SDS011;6620;53.734;11.510;2023-02-28T00:47:40;3.58;;;1.85;;
13108;SDS011;6620;53.734;11.510;2023-02-28T00:50:06;3.07;;;1.73;;
13108;SDS011;6620;53.734;11.510;2023-02-28T00:52:31;3.10;;;1.83;;
13108;SDS011;6620;53.734;11.510;2023-02-28T00:54:56;2.00;;;1.50;;
13108;SDS011;6620;53.734;11.510;2023-02-28T00:57:21;2.60;;;1.65;;
13108;SDS011;6620;53.734;11.510;2023-02-28T00:59:47;5.70;;;1.67;;
13108;SDS011;6620;53.734;11.510;2023-02-28T01:02:12;2.70;;;1.75;;
13108;SDS011;6620;53.734;11.510;2023-02-28T01:04:37;2.47;;;1.40;;
13108;SDS011;6620;53.734;11.510;2023-02-28T01:07:03;3.60;;;1.90;;
13108;SDS011;6620;53.734;11.510;2023-02-28T01:09:28;2.45;;;1.40;;
13108;SDS011;6620;53.734;11.510;2023-02-28T01:11:53;2.67;;;1.58;;
13108;SDS011;6620;53.734;11.510;2023-02-28T01:14:19;2.88;;;1.13;;
13108;SDS011;6620;53.734;11.510;2023-02-28T01:16:44;4.00;;;2.22;;
13108;SDS011;6620;53.734;11.510;2023-02-28T01:19:09;3.20;;;1.10;;
13108;SDS011;6620;53.734;11.510;2023-02-28T01:21:35;3.83;;;1.45;;
13108;SDS011;6620;53.734;11.510;2023-02-28T01:24:01;3.30;;;1.50;;
13108;SDS011;6620;53.734;11.510;2023-02-28T01:26:26;4.65;;;1.55;;
13108;SDS011;6620;53.734;11.510;2023-02-28T01:28:51;3.40;;;2.30;;
13108;SDS011;6620;53.734;11.510;2023-02-28T01:31:17;2.63;;;1.67;;
13108;SDS011;6620;53.734;11.510;2023-02-28T01:33:43;4.40;;;2.70;;
13108;SDS011;6620;53.734;11.510;2023-02-28T01:36:12;3.20;;;1.35;;
13108;SDS011;6620;53.734;11.510;2023-02-28T01:38:38;1.83;;;1.02;;
13108;SDS011;6620;53.734;11.510;2023-02-28T01:41:03;4.27;;;1.50;;
13108;SDS011;6620;53.734;11.510;2023-02-28T01:43:30;3.38;;;1.60;;
13108;SDS011;6620;53.734;11.510;2023-02-28T01:45:56;5.10;;;1.60;;
13108;SDS011;6620;53.734;11.510;2023-02-28T01:48:23;3.05;;;1.30;;
13108;SDS011;6620;53.734;11.510;2023-02-28T01:50:51;1.83;;;1.35;;
13108;SDS011;6620;53.734;11.510;2023-02-28T01:53:18;2.88;;;1.15;;
13108;SDS011;6620;53.734;11.510;2023-02-28T01:55:45;3.17;;;1.10;;
13108;SDS011;6620;53.734;11.510;2023-02-28T01:58:12;1.35;;;1.20;;
13108;SDS011;6620;53.734;11.510;2023-02-28T02:00:37;4.25;;;1.33;;
13108;SDS011;6620;53.734;11.510;2023-02-28T02:03:08;3.20;;;1.77;;
13108;SDS011;6620;53.734;11.510;2023-02-28T02:05:34;3.17;;;1.63;;
13108;SDS011;6620;53.734;11.510;2023-02-28T02:08:03;2.80;;;1.30;;
13108;SDS011;6620;53.734;11.510;2023-02-28T02:10:35;2.33;;;1.42;;
13108;SDS011;6620;53.734;11.510;2023-02-28T02:13:17;3.13;;;1.70;;
13108;SDS011;6620;53.734;11.510;2023-02-28T02:28:35;2.17;;;1.20;;
13108;SDS011;6620;53.734;11.510;2023-02-28T02:34:02;1.48;;;1.23;;
13108;SDS011;6620;53.734;11.510;2023-02-28T02:36:35;2.45;;;1.35;;
13108;SDS011;6620;53.734;11.510;2023-02-28T02:39:14;3.05;;;1.63;;
13108;SDS011;6620;53.734;11.510;2023-02-28T02:44:15;3.58;;;1.48;;
13108;SDS011;6620;53.734;11.510;2023-02-28T02:46:43;1.88;;;1.13;;
13108;SDS011;6620;53.734;11.510;2023-02-28T02:49:10;2.40;;;1.50;;
13108;SDS011;6620;53.734;11.510;2023-02-28T02:51:37;2.20;;;1.40;;
13108;SDS011;6620;53.734;11.510;2023-02-28T02:54:13;2.25;;;1.40;;
13108;SDS011;6620;53.734;11.510;2023-02-28T02:56:41;4.22;;;1.73;;
13108;SDS011;6620;53.734;11.510;2023-02-28T02:59:07;2.78;;;1.35;;
13108;SDS011;6620;53.734;11.510;2023-02-28T03:01:34;3.20;;;1.63;;
13108;SDS011;6620;53.734;11.510;2023-02-28T03:04:07;2.25;;;1.17;;
13108;SDS011;6620;53.734;11.510;2023-02-28T03:06:33;2.85;;;1.83;;
13108;SDS011;6620;53.734;11.510;2023-02-28T03:08:59;4.53;;;1.73;;
13108;SDS011;6620;53.734;11.510;2023-02-28T03:11:25;2.92;;;1.42;;
13108;SDS011;6620;53.734;11.510;2023-02-28T03:19:16;5.35;;;1.50;;
13108;SDS011;6620;53.734;11.510;2023-02-28T03:24:27;3.92;;;2.10;;
13108;SDS011;6620;53.734;11.510;2023-02-28T03:27:39;3.58;;;1.88;;
13108;SDS011;6620;53.734;11.510;2023-02-28T03:29:46;3.35;;;1.67;;
13108;SDS011;6620;53.734;11.510;2023-02-28T03:34:41;1.42;;;1.33;;
13108;SDS011;6620;53.734;11.510;2023-02-28T03:37:14;2.45;;;1.23;;
13108;SDS011;6620;53.734;11.510;2023-02-28T03:39:45;5.38;;;1.73;;
13108;SDS011;6620;53.734;11.510;2023-02-28T03:42:21;3.08;;;1.33;;
13108;SDS011;6620;53.734;11.510;2023-02-28T03:44:49;2.90;;;1.15;;
13108;SDS011;6620;53.734;11.510;2023-02-28T03:47:27;6.10;;;2.03;;
13108;SDS011;6620;53.734;11.510;2023-02-28T03:49:57;2.15;;;1.08;;
13108;SDS011;6620;53.734;11.510;2023-02-28T03:52:25;4.30;;;1.60;;
13108;SDS011;6620;53.734;11.510;2023-02-28T03:54:52;4.78;;;1.77;;
13108;SDS011;6620;53.734;11.510;2023-02-28T03:59:57;3.38;;;1.55;;
13108;SDS011;6620;53.734;11.510;2023-02-28T04:02:24;5.00;;;1.40;;
13108;SDS011;6620;53.734;11.510;2023-02-28T04:04:49;1.25;;;1.15;;
13108;SDS011;6620;53.734;11.510;2023-02-28T04:07:16;5.20;;;1.55;;
13108;SDS011;6620;53.734;11.510;2023-02-28T04:09:42;3.20;;;1.52;;
13108;SDS011;6620;53.734;11.510;2023-02-28T04:12:07;2.75;;;1.60;;
13108;SDS011;6620;53.734;11.510;2023-02-28T04:14:32;1.73;;;1.40;;
13108;SDS011;6620;53.734;11.510;2023-02-28T04:16:57;1.20;;;1.10;;
13108;SDS011;6620;53.734;11.510;2023-02-28T04:19:23;4.20;;;1.60;;
13108;SDS011;6620;53.734;11.510;2023-02-28T04:21:49;1.92;;;1.50;;
13108;SDS011;6620;53.734;11.510;2023-02-28T04:24:17;2.05;;;1.45;;
13108;SDS011;6620;53.734;11.510;2023-02-28T04:26:43;4.88;;;1.20;;
13108;SDS011;6620;53.734;11.510;2023-02-28T04:29:09;1.88;;;1.67;;
13108;SDS011;6620;53.734;11.510;2023-02-28T04:31:35;5.88;;;1.02;;
13108;SDS011;6620;53.734;11.510;2023-02-28T04:34:00;3.95;;;2.60;;
13108;SDS011;6620;53.734;11.510;2023-02-28T04:36:26;4.28;;;1.90;;
13108;SDS011;6620;53.734;11.510;2023-02-28T04:38:51;2.63;;;1.40;;
13108;SDS011;6620;53.734;11.510;2023-02-28T04:41:16;3.92;;;2.20;;
13108;SDS011;6620;53.734;11.510;2023-02-28T04:43:42;1.63;;;1.42;;
13108;SDS011;6620;53.734;11.510;2023-02-28T04:46:08;1.52;;;1.38;;
13108;SDS011;6620;53.734;11.510;2023-02-28T04:48:34;2.22;;;1.38;;
13108;SDS011;6620;53.734;11.510;2023-02-28T04:51:01;1.75;;;1.17;;
13108;SDS011;6620;53.734;11.510;2023-02-28T04:53:27;4.95;;;1.35;;
13108;SDS011;6620;53.734;11.510;2023-02-28T04:55:52;2.60;;;1.38;;
13108;SDS011;6620;53.734;11.510;2023-02-28T04:58:17;8.67;;;1.87;;
13108;SDS011;6620;53.734;11.510;2023-02-28T05:00:43;5.37;;;1.73;;
13108;SDS011;6620;53.734;11.510;2023-02-28T05:03:08;4.40;;;1.83;;
13108;SDS011;6620;53.734;11.510;2023-02-28T05:05:34;1.33;;;1.20;;
13108;SDS011;6620;53.734;11.510;2023-02-28T05:07:59;2.63;;;1.60;;
13108;SDS011;6620;53.734;11.510;2023-02-28T05:10:25;8.07;;;2.15;;
13108;SDS011;6620;53.734;11.510;2023-02-28T05:12:50;4.47;;;2.15;;
13108;SDS011;6620;53.734;11.510;2023-02-28T05:15:17;3.17;;;2.40;;
13108;SDS011;6620;53.734;11.510;2023-02-28T05:17:43;3.22;;;2.92;;
13108;SDS011;6620;53.734;11.510;2023-02-28T05:20:08;6.82;;;2.53;;
13108;SDS011;6620;53.734;11.510;2023-02-28T05:22:38;3.70;;;2.65;;
13108;SDS011;6620;53.734;11.510;2023-02-28T05:25:03;5.63;;;2.58;;
13108;SDS011;6620;53.734;11.510;2023-02-28T05:27:29;3.38;;;2.70;;
13108;SDS011;6620;53.734;11.510;2023-02-28T05:29:55;5.13;;;2.25;;
13108;SDS011;6620;53.734;11.510;2023-02-28T05:32:20;4.07;;;2.40;;
13108;SDS011;6620;53.734;11.510;2023-02-28T05:34:45;4.63;;;1.90;;
13108;SDS011;6620;53.734;11.510;2023-02-28T05:37:11;3.78;;;1.98;;
13108;SDS011;6620;53.734;11.510;2023-02-28T05:39:37;4.65;;;2.38;;
13108;SDS011;6620;53.734;11.510;2023-02-28T05:42:03;4.00;;;2.42;;
13108;SDS011;6620;53.734;11.510;2023-02-28T05:44:28;4.60;;;2.60;;
13108;SDS011;6620;53.734;11.510;2023-02-28T05:46:53;4.10;;;2.20;;
13108;SDS011;6620;53.734;11.510;2023-02-28T05:49:19;3.60;;;2.28;;
13108;SDS011;6620;53.734;11.510;2023-02-28T05:51:44;7.50;;;2.85;;
13108;SDS011;6620;53.734;11.510;2023-02-28T05:54:09;5.67;;;2.80;;
13108;SDS011;6620;53.734;11.510;2023-02-28T05:56:35;5.27;;;2.80;;
13108;SDS011;6620;53.734;11.510;2023-02-28T05:59:00;5.45;;;2.13;;
13108;SDS011;6620;53.734;11.510;2023-02-28T06:01:35;3.20;;;2.00;;
13108;SDS011;6620;53.734;11.510;2023-02-28T06:04:01;3.10;;;2.25;;
13108;SDS011;6620;53.734;11.510;2023-02-28T06:06:27;4.50;;;2.47;;
13108;SDS011;6620;53.734;11.510;2023-02-28T06:08:54;3.88;;;2.30;;
13108;SDS011;6620;53.734;11.510;2023-02-28T06:11:19;5.35;;;2.63;;
13108;SDS011;6620;53.734;11.510;2023-02-28T06:13:45;3.60;;;2.10;;
13108;SDS011;6620;53.734;11.510;2023-02-28T06:16:10;7.80;;;2.92;;
13108;SDS011;6620;53.734;11.510;2023-02-28T06:18:36;5.00;;;2.30;;
13108;SDS011;6620;53.734;11.510;2023-02-28T06:21:01;7.30;;;3.00;;
13108;SDS011;6620;53.734;11.510;2023-02-28T06:23:27;5.03;;;2.53;;
13108;SDS011;6620;53.734;11.510;2023-02-28T06:25:52;4.87;;;2.50;;
13108;SDS011;6620;53.734;11.510;2023-02-28T06:28:18;3.97;;;2.60;;
13108;SDS011;6620;53.734;11.510;2023-02-28T06:30:43;3.83;;;2.45;;
13108;SDS011;6620;53.734;11.510;2023-02-28T06:33:08;5.57;;;3.17;;
13108;SDS011;6620;53.734;11.510;2023-02-28T06:35:33;6.43;;;2.78;;
13108;SDS011;6620;53.734;11.510;2023-02-28T06:37:59;8.73;;;3.63;;
13108;SDS011;6620;53.734;11.510;2023-02-28T06:40:24;9.65;;;3.45;;
13108;SDS011;6620;53.734;11.510;2023-02-28T06:42:49;7.20;;;3.00;;
13108;SDS011;6620;53.734;11.510;2023-02-28T06:45:14;6.17;;;3.00;;
13108;SDS011;6620;53.734;11.510;2023-02-28T06:47:40;6.03;;;2.95;;
13108;SDS011;6620;53.734;11.510;2023-02-28T06:50:06;6.50;;;3.00;;
13108;SDS011;6620;53.734;11.510;2023-02-28T06:52:31;6.60;;;2.90;;
13108;SDS011;6620;53.734;11.510;2023-02-28T06:54:56;7.43;;;3.72;;
13108;SDS011;6620;53.734;11.510;2023-02-28T06:57:29;8.68;;;3.22;;
13108;SDS011;6620;53.734;11.510;2023-02-28T06:59:56;6.53;;;3.17;;
13108;SDS011;6620;53.734;11.510;2023-02-28T07:02:21;7.03;;;3.50;;
13108;SDS011;6620;53.734;11.510;2023-02-28T07:04:46;5.17;;;3.23;;
13108;SDS011;6620;53.734;11.510;2023-02-28T07:07:11;5.72;;;2.78;;
13108;SDS011;6620;53.734;11.510;2023-02-28T07:09:36;6.17;;;3.07;;
13108;SDS011;6620;53.734;11.510;2023-02-28T07:12:02;10.43;;;3.50;;
13108;SDS011;6620;53.734;11.510;2023-02-28T07:14:27;6.43;;;3.33;;
13108;SDS011;6620;53.734;11.510;2023-02-28T07:16:52;3.63;;;3.03;;
13108;SDS011;6620;53.734;11.510;2023-02-28T07:19:17;8.50;;;3.28;;
13108;SDS011;6620;53.734;11.510;2023-02-28T07:21:42;6.15;;;3.33;;
13108;SDS011;6620;53.734;11.510;2023-02-28T07:24:08;5.18;;;3.55;;
13108;SDS011;6620;53.734;11.510;2023-02-28T07:26:33;3.60;;;2.97;;
13108;SDS011;6620;53.734;11.510;2023-02-28T07:29:01;4.45;;;3.00;;
13108;SDS011;6620;53.734;11.510;2023-02-28T07:31:27;8.50;;;3.53;;
13108;SDS011;6620;53.734;11.510;2023-02-28T07:33:52;6.03;;;3.03;;
13108;SDS011;6620;53.734;11.510;2023-02-28T07:36:18;5.88;;;3.03;;
13108;SDS011;6620;53.734;11.510;2023-02-28T07:38:44;5.63;;;3.30;;
13108;SDS011;6620;53.734;11.510;2023-02-28T07:41:11;5.35;;;2.83;;
13108;SDS011;6620;53.734;11.510;2023-02-28T07:43:36;5.23;;;2.87;;
13108;SDS011;6620;53.734;11.510;2023-02-28T07:46:02;5.00;;;2.58;;
13108;SDS011;6620;53.734;11.510;2023-02-28T07:48:28;6.03;;;3.20;;
13108;SDS011;6620;53.734;11.510;2023-02-28T07:50:54;8.50;;;2.97;;
13108;SDS011;6620;53.734;11.510;2023-02-28T07:53:20;6.35;;;3.05;;
13108;SDS011;6620;53.734;11.510;2023-02-28T07:55:45;5.77;;;3.13;;
13108;SDS011;6620;53.734;11.510;2023-02-28T07:58:10;4.87;;;2.90;;
13108;SDS011;6620;53.734;11.510;2023-02-28T08:00:35;6.60;;;2.60;;
13108;SDS011;6620;53.734;11.510;2023-02-28T08:03:00;5.47;;;3.07;;
13108;SDS011;6620;53.734;11.510;2023-02-28T08:05:26;5.90;;;3.37;;
13108;SDS011;6620;53.734;11.510;2023-02-28T08:07:51;6.83;;;2.80;;
13108;SDS011;6620;53.734;11.510;2023-02-28T08:10:16;6.00;;;2.92;;
13108;SDS011;6620;53.734;11.510;2023-02-28T08:12:41;4.97;;;2.67;;
13108;SDS011;6620;53.734;11.510;2023-02-28T08:15:07;4.87;;;2.53;;
13108;SDS011;6620;53.734;11.510;2023-02-28T08:17:32;4.47;;;2.60;;
13108;SDS011;6620;53.734;11.510;2023-02-28T08:19:57;3.58;;;2.28;;
13108;SDS011;6620;53.734;11.510;2023-02-28T08:22:22;3.50;;;2.50;;
13108;SDS011;6620;53.734;11.510;2023-02-28T08:24:48;4.80;;;2.87;;
13108;SDS011;6620;53.734;11.510;2023-02-28T08:27:14;6.93;;;2.95;;
13108;SDS011;6620;53.734;11.510;2023-02-28T08:29:39;4.97;;;2.88;;
13108;SDS011;6620;53.734;11.510;2023-02-28T08:32:05;5.07;;;2.70;;
13108;SDS011;6620;53.734;11.510;2023-02-28T08:34:31;3.90;;;2.45;;
13108;SDS011;6620;53.734;11.510;2023-02-28T08:36:56;7.43;;;2.50;;
13108;SDS011;6620;53.734;11.510;2023-02-28T08:39:21;5.60;;;2.60;;
13108;SDS011;6620;53.734;11.510;2023-02-28T08:41:46;5.77;;;2.47;;
13108;SDS011;6620;53.734;11.510;2023-02-28T08:44:11;4.60;;;2.78;;
13108;SDS011;6620;53.734;11.510;2023-02-28T08:46:37;5.18;;;2.55;;
13108;SDS011;6620;53.734;11.510;2023-02-28T08:49:02;3.45;;;2.30;;
13108;SDS011;6620;53.734;11.510;2023-02-28T08:51:28;5.15;;;2.40;;
13108;SDS011;6620;53.734;11.510;2023-02-28T08:53:54;4.28;;;2.15;;
13108;SDS011;6620;53.734;11.510;2023-02-28T08:56:20;4.78;;;2.10;;
13108;SDS011;6620;53.734;11.510;2023-02-28T08:58:45;3.53;;;2.10;;
13108;SDS011;6620;53.734;11.510;2023-02-28T09:01:12;3.45;;;2.05;;
13108;SDS011;6620;53.734;11.510;2023-02-28T09:03:38;4.13;;;2.30;;
13108;SDS011;6620;53.734;11.510;2023-02-28T09:06:04;3.38;;;2.00;;
13108;SDS011;6620;53.734;11.510;2023-02-28T09:08:30;3.42;;;1.95;;
13108;SDS011;6620;53.734;11.510;2023-02-28T09:10:55;4.43;;;2.20;;
13108;SDS011;6620;53.734;11.510;2023-02-28T09:13:22;4.28;;;2.28;;
13108;SDS011;6620;53.734;11.510;2023-02-28T09:15:47;3.53;;;1.92;;
13108;SDS011;6620;53.734;11.510;2023-02-28T09:18:13;2.38;;;1.52;;
13108;SDS011;6620;53.734;11.510;2023-02-28T09:20:38;3.47;;;1.87;;
13108;SDS011;6620;53.734;11.510;2023-02-28T09:23:04;1.85;;;1.42;;
13108;SDS011;6620;53.734;11.510;2023-02-28T09:25:29;2.22;;;1.60;;
13108;SDS011;6620;53.734;11.510;2023-02-28T09:27:55;2.58;;;1.60;;
13108;SDS011;6620;53.734;11.510;2023-02-28T09:30:20;3.60;;;1.80;;
13108;SDS011;6620;53.734;11.510;2023-02-28T09:32:45;2.33;;;1.45;;
13108;SDS011;6620;53.734;11.510;2023-02-28T09:35:16;1.90;;;1.10;;
13108;SDS011;6620;53.734;11.510;2023-02-28T09:37:42;3.03;;;1.42;;
13108;SDS011;6620;53.734;11.510;2023-02-28T09:40:07;2.38;;;1.17;;
13108;SDS011;6620;53.734;11.510;2023-02-28T09:42:33;2.00;;;1.42;;
13108;SDS011;6620;53.734;11.510;2023-02-28T09:45:00;4.15;;;1.95;;
13108;SDS011;6620;53.734;11.510;2023-02-28T09:47:29;8.23;;;3.47;;
13108;SDS011;6620;53.734;11.510;2023-02-28T09:49:56;6.43;;;2.22;;
13108;SDS011;6620;53.734;11.510;2023-02-28T09:52:28;5.57;;;2.58;;
13108;SDS011;6620;53.734;11.510;2023-02-28T09:54:54;6.63;;;2.03;;
13108;SDS011;6620;53.734;11.510;2023-02-28T10:00:06;3.45;;;0.80;;
13108;SDS011;6620;53.734;11.510;2023-02-28T10:05:23;3.75;;;1.95;;
13108;SDS011;6620;53.734;11.510;2023-02-28T10:07:59;3.35;;;1.58;;
13108;SDS011;6620;53.734;11.510;2023-02-28T10:12:52;4.38;;;0.80;;
13108;SDS011;6620;53.734;11.510;2023-02-28T10:15:18;2.15;;;1.15;;
13108;SDS011;6620;53.734;11.510;2023-02-28T10:17:44;2.05;;;1.00;;
13108;SDS011;6620;53.734;11.510;2023-02-28T10:20:12;1.67;;;0.73;;
13108;SDS011;6620;53.734;11.510;2023-02-28T10:25:24;2.28;;;0.57;;
13108;SDS011;6620;53.734;11.510;2023-02-28T10:27:52;1.10;;;0.70;;
13108;SDS011;6620;53.734;11.510;2023-02-28T10:30:18;3.17;;;0.68;;
13108;SDS011;6620;53.734;11.510;2023-02-28T10:32:47;1.95;;;0.55;;
13108;SDS011;6620;53.734;11.510;2023-02-28T10:35:17;2.38;;;0.70;;
13108;SDS011;6620;53.734;11.510;2023-02-28T10:37:45;1.45;;;1.08;;
13108;SDS011;6620;53.734;11.510;2023-02-28T10:40:32;3.13;;;0.70;;
13108;SDS011;6620;53.734;11.510;2023-02-28T10:43:01;2.55;;;0.50;;
13108;SDS011;6620;53.734;11.510;2023-02-28T10:45:27;2.92;;;0.75;;
13108;SDS011;6620;53.734;11.510;2023-02-28T10:47:54;2.92;;;0.68;;
13108;SDS011;6620;53.734;11.510;2023-02-28T10:50:30;2.50;;;0.60;;
13108;SDS011;6620;53.734;11.510;2023-02-28T10:53:00;2.25;;;0.90;;
13108;SDS011;6620;53.734;11.510;2023-02-28T10:55:30;0.75;;;0.38;;
13108;SDS011;6620;53.734;11.510;2023-02-28T10:57:56;1.55;;;0.70;;
13108;SDS011;6620;53.734;11.510;2023-02-28T11:00:23;1.50;;;0.67;;
13108;SDS011;6620;53.734;11.510;2023-02-28T11:02:50;1.20;;;0.68;;
13108;SDS011;6620;53.734;11.510;2023-02-28T11:05:31;1.13;;;0.60;;
13108;SDS011;6620;53.734;11.510;2023-02-28T11:08:14;1.77;;;0.45;;
13108;SDS011;6620;53.734;11.510;2023-02-28T11:10:39;0.73;;;0.45;;
13108;SDS011;6620;53.734;11.510;2023-02-28T11:13:13;1.63;;;0.70;;
13108;SDS011;6620;53.734;11.510;2023-02-28T11:15:41;1.88;;;0.75;;
13108;SDS011;6620;53.734;11.510;2023-02-28T11:20:37;0.85;;;0.77;;
13108;SDS011;6620;53.734;11.510;2023-02-28T11:23:03;2.08;;;0.55;;
13108;SDS011;6620;53.734;11.510;2023-02-28T11:25:32;0.88;;;0.60;;
13108;SDS011;6620;53.734;11.510;2023-02-28T11:27:59;0.47;;;0.47;;
13108;SDS011;6620;53.734;11.510;2023-02-28T11:30:39;1.40;;;0.70;;
13108;SDS011;6620;53.734;11.510;2023-02-28T11:35:48;0.98;;;0.60;;
13108;SDS011;6620;53.734;11.510;2023-02-28T11:38:14;1.88;;;0.50;;
13108;SDS011;6620;53.734;11.510;2023-02-28T11:43:19;1.67;;;0.60;;
13108;SDS011;6620;53.734;11.510;2023-02-28T11:53:34;2.10;;;0.67;;
13108;SDS011;6620;53.734;11.510;2023-02-28T12:01:38;1.63;;;0.77;;
13108;SDS011;6620;53.734;11.510;2023-02-28T12:04:17;0.95;;;0.65;;
13108;SDS011;6620;53.734;11.510;2023-02-28T12:06:50;3.72;;;0.82;;
13108;SDS011;6620;53.734;11.510;2023-02-28T12:12:11;2.72;;;0.70;;
13108;SDS011;6620;53.734;11.510;2023-02-28T12:17:13;1.42;;;0.85;;
13108;SDS011;6620;53.734;11.510;2023-02-28T12:22:19;5.57;;;1.07;;
13108;SDS011;6620;53.734;11.510;2023-02-28T12:27:15;1.55;;;1.45;;
13108;SDS011;6620;53.734;11.510;2023-02-28T12:29:56;3.25;;;0.60;;
13108;SDS011;6620;53.734;11.510;2023-02-28T12:34:57;1.83;;;0.70;;
13108;SDS011;6620;53.734;11.510;2023-02-28T12:40:23;1.17;;;0.60;;
13108;SDS011;6620;53.734;11.510;2023-02-28T12:42:58;3.30;;;1.42;;
13108;SDS011;6620;53.734;11.510;2023-02-28T12:45:31;1.40;;;0.68;;
13108;SDS011;6620;53.734;11.510;2023-02-28T12:48:00;1.10;;;0.40;;
13108;SDS011;6620;53.734;11.510;2023-02-28T12:50:29;1.23;;;0.63;;
13108;SDS011;6620;53.734;11.510;2023-02-28T12:53:00;2.08;;;0.80;;
13108;SDS011;6620;53.734;11.510;2023-02-28T12:58:29;2.05;;;0.60;;
13108;SDS011;6620;53.734;11.510;2023-02-28T13:03:44;1.33;;;0.70;;
13108;SDS011;6620;53.734;11.510;2023-02-28T13:14:03;2.20;;;0.70;;
13108;SDS011;6620;53.734;11.510;2023-02-28T13:16:47;1.13;;;0.60;;
13108;SDS011;6620;53.734;11.510;2023-02-28T13:19:16;0.77;;;0.60;;
13108;SDS011;6620;53.734;11.510;2023-02-28T13:21:43;2.05;;;0.90;;
13108;SDS011;6620;53.734;11.510;2023-02-28T13:24:09;1.08;;;0.70;;
13108;SDS011;6620;53.734;11.510;2023-02-28T13:34:26;1.02;;;0.40;;
13108;SDS011;6620;53.734;11.510;2023-02-28T13:36:53;2.60;;;0.65;;
13108;SDS011;6620;53.734;11.510;2023-02-28T13:50:13;1.97;;;0.63;;
13108;SDS011;6620;53.734;11.510;2023-02-28T13:52:42;1.45;;;0.50;;
13108;SDS011;6620;53.734;11.510;2023-02-28T13:55:17;1.13;;;0.50;;
13108;SDS011;6620;53.734;11.510;2023-02-28T14:03:05;2.72;;;0.50;;
13108;SDS011;6620;53.734;11.510;2023-02-28T14:05:32;0.73;;;0.63;;
13108;SDS011;6620;53.734;11.510;2023-02-28T14:07:58;1.02;;;0.38;;
13108;SDS011;6620;53.734;11.510;2023-02-28T14:12:51;2.25;;;0.60;;
13108;SDS011;6620;53.734;11.510;2023-02-28T14:15:25;1.58;;;0.70;;
13108;SDS011;6620;53.734;11.510;2023-02-28T14:17:52;1.48;;;0.70;;
13108;SDS011;6620;53.734;11.510;2023-02-28T14:20:18;2.88;;;0.90;;
13108;SDS011;6620;53.734;11.510;2023-02-28T14:36:01;2.28;;;1.02;;
13108;SDS011;6620;53.734;11.510;2023-02-28T14:38:29;2.15;;;0.70;;
13108;SDS011;6620;53.734;11.510;2023-02-28T14:40:56;0.52;;;0.50;;
13108;SDS011;6620;53.734;11.510;2023-02-28T14:43:23;0.88;;;0.50;;
13108;SDS011;6620;53.734;11.510;2023-02-28T14:45:49;1.23;;;0.50;;
13108;SDS011;6620;53.734;11.510;2023-02-28T14:48:16;0.68;;;0.60;;
13108;SDS011;6620;53.734;11.510;2023-02-28T14:50:42;0.77;;;0.40;;
13108;SDS011;6620;53.734;11.510;2023-02-28T14:53:15;1.20;;;0.52;;
13108;SDS011;6620;53.734;11.510;2023-02-28T14:55:44;1.75;;;0.55;;
13108;SDS011;6620;53.734;11.510;2023-02-28T14:58:19;1.10;;;0.65;;
13108;SDS011;6620;53.734;11.510;2023-02-28T15:00:47;1.52;;;0.50;;
13108;SDS011;6620;53.734;11.510;2023-02-28T15:03:19;1.85;;;0.60;;
13108;SDS011;6620;53.734;11.510;2023-02-28T15:05:58;2.78;;;0.70;;
13108;SDS011;6620;53.734;11.510;2023-02-28T15:08:24;0.93;;;0.60;;
13108;SDS011;6620;53.734;11.510;2023-02-28T15:10:57;1.73;;;0.70;;
13108;SDS011;6620;53.734;11.510;2023-02-28T15:13:23;2.13;;;1.08;;
13108;SDS011;6620;53.734;11.510;2023-02-28T15:16:04;5.97;;;0.68;;
13108;SDS011;6620;53.734;11.510;2023-02-28T15:18:36;2.22;;;0.63;;
13108;SDS011;6620;53.734;11.510;2023-02-28T15:21:06;1.10;;;0.60;;
13108;SDS011;6620;53.734;11.510;2023-02-28T15:23:32;0.90;;;0.50;;
13108;SDS011;6620;53.734;11.510;2023-02-28T15:25:59;2.30;;;0.57;;
13108;SDS011;6620;53.734;11.510;2023-02-28T15:28:25;5.32;;;0.80;;
13108;SDS011;6620;53.734;11.510;2023-02-28T15:30:51;1.45;;;0.47;;
13108;SDS011;6620;53.734;11.510;2023-02-28T15:33:18;4.90;;;1.00;;
13108;SDS011;6620;53.734;11.510;2023-02-28T15:35:43;2.20;;;0.85;;
13108;SDS011;6620;53.734;11.510;2023-02-28T15:41:04;0.80;;;0.68;;
13108;SDS011;6620;53.734;11.510;2023-02-28T15:43:34;2.97;;;1.40;;
13108;SDS011;6620;53.734;11.510;2023-02-28T15:46:10;2.40;;;1.00;;
13108;SDS011;6620;53.734;11.510;2023-02-28T15:48:36;2.65;;;1.60;;
13108;SDS011;6620;53.734;11.510;2023-02-28T15:51:06;3.60;;;1.25;;
13108;SDS011;6620;53.734;11.510;2023-02-28T15:53:33;3.00;;;2.00;;
13108;SDS011;6620;53.734;11.510;2023-02-28T15:56:04;0.70;;;0.70;;
13108;SDS011;6620;53.734;11.510;2023-02-28T15:58:30;0.98;;;0.70;;
13108;SDS011;6620;53.734;11.510;2023-02-28T16:03:45;2.25;;;0.65;;
13108;SDS011;6620;53.734;11.510;2023-02-28T16:08:48;1.00;;;0.68;;
13108;SDS011;6620;53.734;11.510;2023-02-28T16:11:16;0.65;;;0.57;;
13108;SDS011;6620;53.734;11.510;2023-02-28T16:13:41;5.07;;;1.00;;
13108;SDS011;6620;53.734;11.510;2023-02-28T16:16:06;1.27;;;1.00;;
13108;SDS011;6620;53.734;11.510;2023-02-28T16:18:31;0.93;;;0.68;;
13108;SDS011;6620;53.734;11.510;2023-02-28T16:20:57;0.80;;;0.80;;
13108;SDS011;6620;53.734;11.510;2023-02-28T16:23:22;1.98;;;0.70;;
13108;SDS011;6620;53.734;11.510;2023-02-28T16:25:47;5.65;;;1.52;;
13108;SDS011;6620;53.734;11.510;2023-02-28T16:28:17;1.75;;;0.90;;
13108;SDS011;6620;53.734;11.510;2023-02-28T16:30:43;1.77;;;0.80;;
13108;SDS011;6620;53.734;11.510;2023-02-28T16:33:08;0.87;;;0.60;;
13108;SDS011;6620;53.734;11.510;2023-02-28T16:35:34;2.35;;;0.70;;
13108;SDS011;6620;53.734;11.510;2023-02-28T16:37:59;2.55;;;0.80;;
13108;SDS011;6620;53.734;11.510;2023-02-28T16:40:25;1.75;;;0.70;;
13108;SDS011;6620;53.734;11.510;2023-02-28T16:42:51;1.38;;;0.90;;
13108;SDS011;6620;53.734;11.510;2023-02-28T16:45:18;0.60;;;0.60;;
13108;SDS011;6620;53.734;11.510;2023-02-28T16:47:45;1.35;;;0.85;;
13108;SDS011;6620;53.734;11.510;2023-02-28T16:50:14;0.98;;;0.50;;
13108;SDS011;6620;53.734;11.510;2023-02-28T16:52:40;0.88;;;0.70;;
13108;SDS011;6620;53.734;11.510;2023-02-28T16:55:05;4.23;;;1.00;;
13108;SDS011;6620;53.734;11.510;2023-02-28T16:57:30;2.63;;;0.85;;
13108;SDS011;6620;53.734;11.510;2023-02-28T16:59:55;0.90;;;0.63;;
13108;SDS011;6620;53.734;11.510;2023-02-28T17:02:21;1.43;;;0.63;;
13108;SDS011;6620;53.734;11.510;2023-02-28T17:04:46;0.50;;;0.50;;
13108;SDS011;6620;53.734;11.510;2023-02-28T17:07:12;1.42;;;0.50;;
13108;SDS011;6620;53.734;11.510;2023-02-28T17:09:37;2.58;;;0.50;;